Canton, NY (13617)

11:20 AM EST on December 08, 2016 (GMT -0500)
Martin Tract | | Change Station

Elev 407 ft 44.60 °N, 75.18 °W | Updated 5 minutes ago

Overcast
Overcast
35.5 °F
Feels Like 36 °F
N
0.0
Wind Variable Wind from SW
Gusts 5.0 mph

Today
High -- | Low -- °F
--% Chance of Precip.
Yesterday
High -- | Low -- °F
Precip. -- in
Pressure 29.80 in
Visibility 10.0 miles
Clouds Scattered Clouds 800 ft
Scattered Clouds 1800 ft
Scattered Clouds 5500 ft
Windchill 36 °F
Dew Point 27 °F
Humidity 71%
Rainfall 0.00 in
Snow Depth Not available.
7:25 AM 4:20 PM
Waxing Gibbous, 64% visible
METAR KOGS 081615Z AUTO 27013G22KT 10SM SCT008 SCT018 SCT055 02/M03 A2980 RMK AO2 T00221028 TSNO
Pressure 29.80 in
Visibility 10.0 miles
Clouds Scattered Clouds 800 ft
Scattered Clouds 1800 ft
Scattered Clouds 5500 ft
Windchill 36 °F
Dew Point 27 °F
Humidity 71%
Rainfall 0.00 in
Snow Depth Not available.
7:25 AM 4:20 PM
Waxing Gibbous, 64% visible
METAR KOGS 081615Z AUTO 27013G22KT 10SM SCT008 SCT018 SCT055 02/M03 A2980 RMK AO2 T00221028 TSNO

10-Day Weather Forecast

Almanac

Astronomy

Dec. 08, 2016 Rise Set
Actual Time
Civil Twilight
Nautical Twilight
Astronomical Twilight
Moon
Length of Visible Light
Length of Day
Tomorrow will be .
, % of the Moon is Illuminated

Today's Extremes

State Highs State Lows

Community

WunderPhotos

Upload Photos

1,956,274 photos uploaded!

WunderBlog® & News

Nearby

Air Quality

  Air Quality AQ Index Pollutant
Not available.

Snow Depth

Station Depth Elevation

Earthquake Activity

City Distance Mag. Time & Date
Minimum magnitude displayed is 2.5.

Coastal Water Temperatures

Place Temperature

Stations

Nearby Weather Stations

Station Location Temp. Windchill Dew Point Humidity Wind Precip. Elev Updated Type
                   

Watches & Warnings

There are currently no watches in effect.